Time;durP1;ratioP1;P1;durP2;ratioP2;P2;SDS_P1;SDS_P2;PMS_P1;PMS_P2;Temp;Humidity;BMP_temperature;BMP_pressure;BME280_temperature;BME280_humidity;BME280_pressure;Samples;Min_cycle;Max_cycle;Signal;HPM_P1;HPM_P2
2024/04/22 00:01:47;;;;;;;13.23;12.03;;;3.70;86.10;;;;;;5382719;26;20818;-88
2024/04/22 00:04:13;;;;;;;12.67;11.77;;;3.70;86.10;;;;;;5382564;26;20311;-87
2024/04/22 00:06:43;;;;;;;12.77;11.77;;;3.80;86.20;;;;;;5384615;26;20323;-88
2024/04/22 00:09:10;;;;;;;13.10;11.93;;;3.80;86.20;;;;;;5385143;26;20318;-87
2024/04/22 00:11:35;;;;;;;13.20;12.10;;;3.80;86.20;;;;;;5384924;26;20218;-88
2024/04/22 00:14:01;;;;;;;13.10;12.10;;;3.80;86.30;;;;;;5382986;26;20271;-88
2024/04/22 00:16:27;;;;;;;17.97;11.93;;;3.80;86.20;;;;;;5384587;26;20627;-87
2024/04/22 00:18:52;;;;;;;13.40;12.30;;;3.80;86.20;;;;;;5384473;26;20299;-88
2024/04/22 00:21:18;;;;;;;13.07;12.00;;;3.80;86.20;;;;;;5384510;26;20260;-88
2024/04/22 00:23:43;;;;;;;12.73;11.67;;;3.70;86.10;;;;;;5384191;26;20596;-87
2024/04/22 00:26:09;;;;;;;13.20;11.87;;;3.70;86.10;;;;;;5383010;26;20252;-87
2024/04/22 00:28:34;;;;;;;13.27;12.20;;;3.60;86.00;;;;;;5382848;26;20252;-86
2024/04/22 00:31:00;;;;;;;12.10;11.20;;;3.50;86.10;;;;;;5384831;26;20274;-88
2024/04/22 00:33:26;;;;;;;12.00;11.03;;;3.50;86.30;;;;;;5384424;26;20232;-88
2024/04/22 00:35:55;;;;;;;12.23;11.30;;;3.50;86.50;;;;;;5382493;26;20225;-88
2024/04/22 00:38:21;;;;;;;12.60;11.63;;;3.50;86.50;;;;;;5384518;26;20220;-87
2024/04/22 00:40:47;;;;;;;13.33;12.33;;;3.50;86.60;;;;;;5383740;26;20321;-89
2024/04/22 00:43:13;;;;;;;13.53;12.50;;;3.50;86.50;;;;;;5382957;26;20243;-88
2024/04/22 00:45:38;;;;;;;12.77;11.73;;;3.50;86.50;;;;;;5380986;26;20229;-88
2024/04/22 00:48:05;;;;;;;13.37;12.03;;;3.60;86.40;;;;;;5381530;26;20218;-89
2024/04/22 00:50:31;;;;;;;13.07;12.00;;;3.70;86.10;;;;;;5381150;26;20291;-89
2024/04/22 00:53:00;;;;;;;12.30;11.23;;;3.70;85.80;;;;;;5382750;26;20229;-90
2024/04/22 00:55:26;;;;;;;12.70;11.63;;;3.60;85.60;;;;;;5381176;26;20387;-88
2024/04/22 00:57:56;;;;;;;14.97;12.37;;;3.60;85.60;;;;;;5381196;26;20679;-89
2024/04/22 01:00:23;;;;;;;12.80;11.90;;;3.70;85.60;;;;;;5381246;26;20325;-89
2024/04/22 01:02:50;;;;;;;24.30;22.50;;;3.70;85.40;;;;;;5383000;26;20323;-88
2024/04/22 01:05:16;;;;;;;22.30;20.53;;;3.60;85.40;;;;;;5382857;26;20292;-89
2024/04/22 01:07:42;;;;;;;22.67;21.07;;;3.60;85.40;;;;;;5380961;26;20257;-88
2024/04/22 01:10:08;;;;;;;22.50;20.87;;;3.60;85.60;;;;;;5383003;26;20262;-89
2024/04/22 01:12:34;;;;;;;20.83;19.43;;;3.50;85.80;;;;;;5379806;26;20223;-89
2024/04/22 01:15:00;;;;;;;23.27;21.67;;;3.50;86.10;;;;;;5382540;26;20325;-89
2024/04/22 01:17:39;;;;;;;22.43;20.87;;;3.50;86.20;;;;;;5380670;26;20726;-89
2024/04/22 01:20:07;;;;;;;21.37;19.87;;;3.50;86.20;;;;;;5380878;26;20347;-88
2024/04/22 01:22:33;;;;;;;24.73;22.97;;;3.60;86.10;;;;;;5380813;26;20265;-89
2024/04/22 01:25:01;;;;;;;22.73;21.17;;;3.60;85.80;;;;;;5382701;26;20233;-89
2024/04/22 01:27:29;;;;;;;21.87;20.33;;;3.60;85.70;;;;;;5380701;26;20222;-88
2024/04/22 01:29:54;;;;;;;20.83;19.03;;;3.50;85.70;;;;;;5380562;26;20259;-89
2024/04/22 01:32:20;;;;;;;20.27;18.83;;;3.50;85.90;;;;;;5380688;26;20220;-89
2024/04/22 01:34:52;;;;;;;19.97;18.57;;;3.50;86.10;;;;;;5380507;26;20242;-88
2024/04/22 01:37:18;;;;;;;19.83;18.17;;;3.50;86.40;;;;;;5380573;26;20230;-89
2024/04/22 01:39:43;;;;;;;19.47;18.03;;;3.40;86.80;;;;;;5382138;26;20257;-88
2024/04/22 01:42:08;;;;;;;20.33;18.50;;;3.50;87.30;;;;;;5382034;26;20328;-88
2024/04/22 01:44:34;;;;;;;19.73;18.13;;;3.50;87.40;;;;;;5382213;26;20240;-88
2024/04/22 01:47:00;;;;;;;21.03;19.33;;;3.50;87.70;;;;;;5380291;26;20328;-88
2024/04/22 01:49:25;;;;;;;20.57;19.07;;;3.40;87.80;;;;;;5380334;26;20229;-89
2024/04/22 01:51:51;;;;;;;18.47;17.07;;;3.50;87.90;;;;;;5380342;26;20228;-88
2024/04/22 01:54:17;;;;;;;19.50;18.20;;;3.40;87.90;;;;;;5382319;26;20734;-88
2024/04/22 01:56:42;;;;;;;19.47;18.20;;;3.40;87.80;;;;;;5382352;26;20249;-89
2024/04/22 01:59:08;;;;;;;19.50;18.20;;;3.30;87.80;;;;;;5384220;26;20222;-89
2024/04/22 02:01:34;;;;;;;21.80;19.93;;;3.30;87.80;;;;;;5386271;26;20233;-90
2024/04/22 02:03:59;;;;;;;18.53;17.17;;;3.30;87.80;;;;;;5385455;26;20779;-89
2024/04/22 02:06:25;;;;;;;18.03;16.83;;;3.30;87.80;;;;;;5383819;26;20227;-89
2024/04/22 02:08:51;;;;;;;20.30;18.60;;;3.30;87.90;;;;;;5383353;26;20252;-89
2024/04/22 02:11:16;;;;;;;21.53;20.07;;;3.30;88.10;;;;;;5382989;26;20222;-88
2024/04/22 02:13:42;;;;;;;20.87;19.23;;;3.30;87.90;;;;;;5382797;26;20339;-88
2024/04/22 02:16:08;;;;;;;21.83;20.33;;;3.30;87.60;;;;;;5382890;26;20722;-88
2024/04/22 02:18:33;;;;;;;19.13;17.53;;;3.30;87.50;;;;;;5382433;26;20255;-88
2024/04/22 02:20:59;;;;;;;17.60;16.30;;;3.30;87.50;;;;;;5383565;26;20665;-88
2024/04/22 02:23:25;;;;;;;20.20;18.70;;;3.20;87.50;;;;;;5382962;26;20226;-87
2024/04/22 02:25:50;;;;;;;20.97;19.43;;;3.30;87.60;;;;;;5386506;26;20315;-87
2024/04/22 02:28:16;;;;;;;20.43;19.03;;;3.40;87.50;;;;;;5384782;26;20591;-88
2024/04/22 02:30:41;;;;;;;20.73;19.23;;;3.40;87.10;;;;;;5384839;26;20229;-87
2024/04/22 02:33:07;;;;;;;12.03;10.87;;;3.30;87.10;;;;;;5384654;26;20226;-87
2024/04/22 02:35:33;;;;;;;10.83;9.93;;;3.30;87.10;;;;;;5384617;26;20256;-88
2024/04/22 02:37:59;;;;;;;11.73;10.70;;;3.30;87.10;;;;;;5384745;26;20226;-87
2024/04/22 02:40:27;;;;;;;11.33;10.47;;;3.30;86.90;;;;;;5387031;26;20646;-89
2024/04/22 02:42:52;;;;;;;11.63;10.63;;;3.20;86.80;;;;;;5384327;26;20318;-88
2024/04/22 02:45:19;;;;;;;10.43;9.60;;;3.20;86.90;;;;;;5386326;26;20257;-88
2024/04/22 02:47:45;;;;;;;10.37;9.47;;;3.20;86.90;;;;;;5386300;26;20222;-88
2024/04/22 02:50:10;;;;;;;11.40;10.30;;;3.10;86.90;;;;;;5384538;26;20227;-87
2024/04/22 02:52:36;;;;;;;10.73;9.83;;;3.10;87.00;;;;;;5384209;26;20250;-88
2024/04/22 02:55:02;;;;;;;10.50;9.50;;;3.00;87.10;;;;;;5386039;26;20261;-88
2024/04/22 02:57:28;;;;;;;12.70;9.47;;;2.90;87.20;;;;;;5386132;26;20319;-88
2024/04/22 02:59:53;;;;;;;10.50;9.60;;;2.90;87.40;;;;;;5385767;26;20222;-88
2024/04/22 03:02:19;;;;;;;10.57;9.77;;;2.90;87.60;;;;;;5385909;26;20252;-88
2024/04/22 03:04:49;;;;;;;10.43;9.63;;;2.90;87.70;;;;;;5383739;26;20246;-87
2024/04/22 03:07:14;;;;;;;9.80;9.03;;;2.90;87.70;;;;;;5386148;26;20259;-87
2024/04/22 03:09:42;;;;;;;11.20;10.40;;;2.80;87.70;;;;;;5385856;26;20220;-88
2024/04/22 03:12:09;;;;;;;11.30;10.20;;;2.80;87.50;;;;;;5385044;26;20274;-86
2024/04/22 03:14:35;;;;;;;11.30;10.30;;;2.80;87.50;;;;;;5382767;26;20349;-87
2024/04/22 03:17:01;;;;;;;11.03;9.97;;;2.80;87.40;;;;;;5382820;26;20225;-88
2024/04/22 03:19:27;;;;;;;11.17;10.17;;;2.80;87.20;;;;;;5382836;26;20644;-88
2024/04/22 03:21:53;;;;;;;11.83;10.73;;;2.80;87.10;;;;;;5384470;26;20761;-87
2024/04/22 03:24:18;;;;;;;11.53;10.63;;;2.80;86.90;;;;;;5382623;26;20267;-87
2024/04/22 03:26:44;;;;;;;10.87;10.07;;;2.80;86.80;;;;;;5384576;26;20326;-84
2024/04/22 03:29:10;;;;;;;11.53;10.57;;;2.80;86.70;;;;;;5382755;26;20225;-88
2024/04/22 03:31:35;;;;;;;12.77;11.60;;;2.80;86.70;;;;;;5382662;26;20225;-88
2024/04/22 03:34:01;;;;;;;12.07;11.10;;;2.90;86.50;;;;;;5382316;26;20356;-86
2024/04/22 03:36:27;;;;;;;12.10;11.20;;;2.80;86.50;;;;;;5383441;26;20214;-88
2024/04/22 03:38:52;;;;;;;24.17;22.43;;;2.80;86.60;;;;;;5384407;26;20226;-87
2024/04/22 03:41:18;;;;;;;24.90;22.90;;;2.80;86.70;;;;;;5382307;26;20282;-87
2024/04/22 03:43:44;;;;;;;24.53;22.73;;;2.90;86.80;;;;;;5382419;26;20272;-87
2024/04/22 03:51:37;;;;;;;23.83;21.73;;;3.00;86.90;;;;;;5385829;26;20251;-88
2024/04/22 03:54:03;;;;;;;22.57;20.70;;;3.20;86.80;;;;;;5383888;26;20229;-88
2024/04/22 03:56:28;;;;;;;23.40;21.60;;;3.20;86.70;;;;;;5384035;26;20216;-88
2024/04/22 03:58:54;;;;;;;20.90;19.40;;;3.10;86.70;;;;;;5382255;26;20283;-87
2024/04/22 04:01:21;;;;;;;21.70;20.07;;;3.00;86.70;;;;;;5382218;26;20229;-88
2024/04/22 04:03:46;;;;;;;22.57;20.67;;;2.90;86.90;;;;;;5383953;26;20372;-88
2024/04/22 04:06:12;;;;;;;23.70;21.83;;;2.90;86.90;;;;;;5384165;26;20232;-88
2024/04/22 04:08:37;;;;;;;23.27;21.47;;;2.70;86.70;;;;;;5384237;26;20217;-87
2024/04/22 04:11:11;;;;;;;21.53;19.43;;;2.80;86.90;;;;;;5383864;26;20220;-88
2024/04/22 04:13:38;;;;;;;22.50;20.77;;;2.80;86.60;;;;;;5383937;26;20252;-88
2024/04/22 04:16:04;;;;;;;20.63;19.23;;;2.80;86.10;;;;;;5383969;26;20559;-87
2024/04/22 04:18:29;;;;;;;20.83;19.40;;;2.70;85.60;;;;;;5383733;26;20259;-87
2024/04/22 04:20:55;;;;;;;13.17;12.17;;;2.70;85.30;;;;;;5383765;26;20219;-87
2024/04/22 04:23:21;;;;;;;13.13;12.03;;;2.60;84.70;;;;;;5383793;26;20259;-87
2024/04/22 04:25:46;;;;;;;23.97;21.97;;;2.70;84.20;;;;;;5384067;26;20261;-88
2024/04/22 04:28:12;;;;;;;19.60;18.30;;;2.70;84.30;;;;;;5383885;26;20210;-87
2024/04/22 04:30:37;;;;;;;20.93;18.97;;;2.70;84.80;;;;;;5381956;26;20254;-87
2024/04/22 04:33:03;;;;;;;19.60;18.10;;;2.70;85.00;;;;;;5381976;26;20275;-87
2024/04/22 04:35:28;;;;;;;19.93;18.63;;;2.80;85.20;;;;;;5382094;26;20230;-87
2024/04/22 04:37:54;;;;;;;20.80;19.40;;;2.90;85.10;;;;;;5381939;26;20228;-87
2024/04/22 04:40:19;;;;;;;21.27;19.87;;;2.90;84.80;;;;;;5381949;26;20607;-87
2024/04/22 04:42:45;;;;;;;21.03;19.30;;;2.90;84.60;;;;;;5383694;26;20222;-87
2024/04/22 04:45:10;;;;;;;22.93;20.33;;;3.00;84.60;;;;;;5381363;26;20266;-87
2024/04/22 04:47:36;;;;;;;23.10;21.40;;;3.10;84.20;;;;;;5380336;26;20237;-87
2024/04/22 04:50:03;;;;;;;22.43;20.73;;;3.10;83.90;;;;;;5383371;26;20323;-87
2024/04/22 04:52:28;;;;;;;19.30;18.00;;;3.20;83.90;;;;;;5383388;26;20253;-87
2024/04/22 04:54:54;;;;;;;19.43;18.13;;;3.20;84.00;;;;;;5381437;26;20241;-87
2024/04/22 04:57:19;;;;;;;20.33;18.93;;;3.10;84.00;;;;;;5381728;26;20243;-87
2024/04/22 04:59:45;;;;;;;21.17;19.53;;;3.00;84.20;;;;;;5381405;26;20229;-88
2024/04/22 05:02:10;;;;;;;19.67;18.27;;;3.00;84.30;;;;;;5383357;26;20218;-88
2024/04/22 05:04:36;;;;;;;11.87;10.70;;;2.90;84.50;;;;;;5381244;26;20237;-87
2024/04/22 05:07:01;;;;;;;12.60;11.70;;;2.90;84.60;;;;;;5383383;26;20217;-87
2024/04/22 05:09:27;;;;;;;13.20;12.20;;;2.80;84.40;;;;;;5381386;26;20318;-87
2024/04/22 05:11:53;;;;;;;13.73;12.67;;;2.80;83.80;;;;;;5383030;26;20222;-87
2024/04/22 05:14:18;;;;;;;14.33;13.27;;;2.70;83.80;;;;;;5381156;26;20267;-87
2024/04/22 05:16:45;;;;;;;12.80;11.83;;;2.80;83.80;;;;;;5381022;26;20227;-88
2024/04/22 05:19:10;;;;;;;11.90;10.97;;;2.80;83.90;;;;;;5381463;26;20804;-87
2024/04/22 05:21:36;;;;;;;11.43;10.43;;;2.80;84.10;;;;;;5381512;26;20241;-87
2024/04/22 05:24:09;;;;;;;11.67;10.77;;;2.80;84.80;;;;;;5381288;26;20235;-87
2024/04/22 05:26:35;;;;;;;11.10;10.30;;;2.80;85.00;;;;;;5382878;26;20210;-87
2024/04/22 05:29:01;;;;;;;10.83;9.90;;;2.80;85.30;;;;;;5381332;26;20307;-87
2024/04/22 05:31:26;;;;;;;11.03;10.23;;;2.90;85.70;;;;;;5383100;26;20322;-88
2024/04/22 05:36:36;;;;;;;11.50;10.60;;;2.80;85.40;;;;;;5384868;26;20264;-88
2024/04/22 05:39:02;;;;;;;11.53;10.47;;;2.90;85.30;;;;;;5381181;26;20224;-88
2024/04/22 05:41:28;;;;;;;11.17;10.07;;;2.90;85.30;;;;;;5383090;26;20219;-87
2024/04/22 05:43:54;;;;;;;10.40;9.43;;;3.00;85.40;;;;;;5380950;26;20269;-87
2024/04/22 05:46:20;;;;;;;10.57;9.57;;;3.10;85.70;;;;;;5382684;26;20657;-88
2024/04/22 05:48:45;;;;;;;9.37;8.67;;;3.10;84.40;;;;;;5381086;26;20226;-88
2024/04/22 05:51:11;;;;;;;10.53;9.80;;;3.10;83.60;;;;;;5382693;26;20261;-88
2024/04/22 05:53:37;;;;;;;10.53;9.60;;;3.20;82.80;;;;;;5380567;26;20273;-88
2024/04/22 05:56:03;;;;;;;13.57;10.27;;;3.20;82.30;;;;;;5380758;26;20250;-87
2024/04/22 05:58:29;;;;;;;9.60;8.80;;;3.30;82.30;;;;;;5381171;26;20244;-89
2024/04/22 06:00:54;;;;;;;10.30;8.97;;;3.40;82.90;;;;;;5384453;26;20223;-87
2024/04/22 06:03:20;;;;;;;11.07;9.97;;;3.40;82.50;;;;;;5385856;26;20226;-87
2024/04/22 06:05:48;;;;;;;11.07;9.97;;;3.40;81.60;;;;;;5385702;26;20674;-89
2024/04/22 06:08:14;;;;;;;12.67;11.83;;;3.40;80.60;;;;;;5383933;26;20258;-87
2024/04/22 06:10:39;;;;;;;12.43;11.53;;;3.50;79.60;;;;;;5383894;26;20218;-88
2024/04/22 06:13:05;;;;;;;12.53;11.47;;;3.50;79.90;;;;;;5383883;26;20256;-87
2024/04/22 06:15:33;;;;;;;12.77;11.73;;;3.50;79.50;;;;;;5383907;26;20235;-86
2024/04/22 06:17:59;;;;;;;13.07;12.17;;;3.50;78.70;;;;;;5385670;26;20230;-87
2024/04/22 06:20:25;;;;;;;13.03;11.83;;;3.60;78.80;;;;;;5383773;26;20245;-87
2024/04/22 06:22:50;;;;;;;14.37;13.27;;;3.70;78.60;;;;;;5384244;26;20234;-88
2024/04/22 06:25:16;;;;;;;14.63;13.47;;;3.60;75.40;;;;;;5383388;26;20249;-86
2024/04/22 06:27:41;;;;;;;16.47;15.00;;;3.70;76.00;;;;;;5383928;26;20226;-85
2024/04/22 06:30:07;;;;;;;15.73;14.50;;;3.70;74.10;;;;;;5385123;26;20261;-88
2024/04/22 06:32:34;;;;;;;15.00;13.80;;;3.70;75.20;;;;;;5384457;26;20241;-88
2024/04/22 06:35:03;;;;;;;24.67;23.00;;;3.70;75.20;;;;;;5383549;26;20304;-89
2024/04/22 06:37:29;;;;;;;24.60;23.00;;;3.70;74.60;;;;;;5384191;26;20283;-88
2024/04/22 06:39:55;;;;;;;23.50;21.90;;;3.70;72.30;;;;;;5385949;26;20230;-88
2024/04/22 06:42:21;;;;;;;26.60;24.73;;;3.80;74.40;;;;;;5386065;26;20215;-87
2024/04/22 06:44:47;;;;;;;25.87;24.27;;;3.80;72.60;;;;;;5385662;26;20698;-88
2024/04/22 06:47:13;;;;;;;25.40;23.80;;;3.70;72.30;;;;;;5384206;26;20249;-87
2024/04/22 06:49:39;;;;;;;29.47;27.50;;;3.90;73.90;;;;;;5386804;26;20249;-85
2024/04/22 06:52:08;;;;;;;27.47;25.50;;;3.80;68.80;;;;;;5383966;26;20219;-88
2024/04/22 06:54:34;;;;;;;28.47;26.37;;;3.90;71.00;;;;;;5385673;26;20231;-88
2024/04/22 06:57:00;;;;;;;28.07;26.07;;;4.20;71.00;;;;;;5383694;26;20249;-88
2024/04/22 06:59:26;;;;;;;27.67;25.80;;;4.30;70.10;;;;;;5385375;26;20741;-88
2024/04/22 07:01:52;;;;;;;29.57;27.33;;;4.40;71.40;;;;;;5385529;26;20550;-86
2024/04/22 07:04:17;;;;;;;29.07;27.17;;;4.30;69.50;;;;;;5383895;26;20265;-88
2024/04/22 07:06:43;;;;;;;28.77;26.97;;;4.20;66.90;;;;;;5384363;26;20251;-88
2024/04/22 07:09:16;;;;;;;30.13;28.03;;;4.30;69.60;;;;;;5385769;26;20325;-87
2024/04/22 07:11:42;;;;;;;30.40;28.10;;;4.30;70.00;;;;;;5382646;26;20247;-86
2024/04/22 07:14:10;;;;;;;27.77;25.23;;;4.50;70.50;;;;;;5383769;26;20253;-89
2024/04/22 07:16:35;;;;;;;30.40;28.40;;;4.50;69.30;;;;;;5383168;26;20218;-88
2024/04/22 07:19:01;;;;;;;31.47;29.07;;;4.30;67.20;;;;;;5383014;26;20256;-86
2024/04/22 07:21:26;;;;;;;31.13;29.07;;;4.30;68.60;;;;;;5382849;26;20713;-87
2024/04/22 07:23:52;;;;;;;29.77;27.23;;;4.30;69.30;;;;;;5384461;26;20229;-89
2024/04/22 07:26:18;;;;;;;29.00;26.93;;;4.40;70.20;;;;;;5382593;26;20256;-85
2024/04/22 07:28:43;;;;;;;26.43;24.53;;;4.50;69.90;;;;;;5384772;26;20221;-87
2024/04/22 07:31:09;;;;;;;28.70;26.63;;;4.70;72.00;;;;;;5383496;26;20746;-89
2024/04/22 07:33:35;;;;;;;29.43;27.00;;;4.70;69.50;;;;;;5385521;26;20238;-88
2024/04/22 07:36:32;;;;;;;27.53;25.50;;;4.70;70.20;;;;;;5383200;26;20221;-89
2024/04/22 07:39:02;;;;;;;30.33;28.23;;;4.80;69.00;;;;;;5375172;26;20221;-88
2024/04/22 07:41:27;;;;;;;31.20;29.00;;;4.80;69.40;;;;;;5382648;26;20219;-87
2024/04/22 07:43:54;;;;;;;28.77;26.77;;;4.70;68.50;;;;;;5382728;26;20233;-87
2024/04/22 07:46:20;;;;;;;27.77;25.93;;;4.70;70.40;;;;;;5382512;26;20248;-87
2024/04/22 07:48:46;;;;;;;28.53;26.47;;;4.80;70.30;;;;;;5384740;26;20280;-87
2024/04/22 07:51:11;;;;;;;29.37;27.47;;;5.00;71.20;;;;;;5384689;26;20221;-88
2024/04/22 07:53:37;;;;;;;26.43;24.53;;;5.20;69.70;;;;;;5385190;26;20259;-87
2024/04/22 07:56:10;;;;;;;19.23;18.03;;;5.10;67.80;;;;;;5385212;26;20260;-88
2024/04/22 07:58:36;;;;;;;19.37;18.07;;;5.10;67.30;;;;;;5382879;26;20214;-87
2024/04/22 08:01:02;;;;;;;26.50;24.80;;;5.10;67.50;;;;;;5384481;26;20566;-88
2024/04/22 08:03:28;;;;;;;26.47;24.73;;;5.40;68.20;;;;;;5384516;26;20229;-87
2024/04/22 08:05:58;;;;;;;26.80;24.90;;;5.50;68.70;;;;;;5383034;26;20245;-88
2024/04/22 08:08:26;;;;;;;27.87;25.97;;;5.60;68.00;;;;;;5384533;26;20253;-88
2024/04/22 08:10:52;;;;;;;26.67;24.73;;;5.50;66.80;;;;;;5382867;26;20253;-87
2024/04/22 08:13:17;;;;;;;28.83;26.83;;;5.60;67.40;;;;;;5382381;26;20229;-89
2024/04/22 08:15:42;;;;;;;28.57;26.57;;;5.70;67.80;;;;;;5382699;26;20225;-86
2024/04/22 08:18:10;;;;;;;27.63;25.73;;;5.40;65.20;;;;;;5384147;26;20301;-87
2024/04/22 08:20:35;;;;;;;28.03;26.13;;;5.70;68.40;;;;;;5382897;26;20214;-88
2024/04/22 08:23:01;;;;;;;28.87;26.97;;;6.00;69.20;;;;;;5382008;26;20219;-88
2024/04/22 08:25:26;;;;;;;29.07;26.97;;;5.90;67.90;;;;;;5382241;26;20222;-88
2024/04/22 08:27:52;;;;;;;28.47;26.20;;;6.00;67.40;;;;;;5382507;26;20736;-89
2024/04/22 08:30:17;;;;;;;27.53;25.60;;;6.10;67.30;;;;;;5382523;26;20234;-88
2024/04/22 08:32:43;;;;;;;29.30;27.20;;;6.40;67.90;;;;;;5381855;26;20226;-89
2024/04/22 08:35:09;;;;;;;30.97;28.77;;;6.40;64.20;;;;;;5382535;26;20230;-89
2024/04/22 08:37:34;;;;;;;29.67;27.43;;;6.30;64.10;;;;;;5382206;26;20674;-88
2024/04/22 08:40:00;;;;;;;31.03;28.80;;;6.40;65.60;;;;;;5381986;26;20331;-89
2024/04/22 08:42:26;;;;;;;30.97;28.80;;;6.50;65.10;;;;;;5382257;26;20226;-86
2024/04/22 08:44:52;;;;;;;30.30;28.20;;;6.50;63.40;;;;;;5381732;26;20322;-89
2024/04/22 08:47:18;;;;;;;30.70;28.60;;;6.30;65.40;;;;;;5381890;26;20230;-88
2024/04/22 08:49:44;;;;;;;30.13;27.70;;;6.40;64.80;;;;;;5381615;26;20253;-88
2024/04/22 08:52:09;;;;;;;30.83;28.63;;;6.80;66.60;;;;;;5381607;26;20226;-89
2024/04/22 08:54:35;;;;;;;29.93;27.60;;;6.80;64.60;;;;;;5381694;26;20226;-88
2024/04/22 08:57:01;;;;;;;30.57;28.47;;;6.60;64.90;;;;;;5383835;26;20222;-87
2024/04/22 08:59:27;;;;;;;29.63;27.63;;;6.90;63.80;;;;;;5382922;26;20261;-88
2024/04/22 09:02:00;;;;;;;30.43;28.23;;;7.20;65.80;;;;;;5383218;26;20698;-89
2024/04/22 09:04:26;;;;;;;28.93;26.83;;;7.20;63.40;;;;;;5381162;26;20360;-89
2024/04/22 09:06:52;;;;;;;31.63;29.13;;;7.50;65.90;;;;;;5384066;26;20218;-89
2024/04/22 09:09:18;;;;;;;29.33;27.03;;;7.20;64.20;;;;;;5384147;26;20214;-89
2024/04/22 09:11:49;;;;;;;21.10;19.60;;;7.30;63.70;;;;;;5381747;26;20249;-89
2024/04/22 09:14:15;;;;;;;22.50;20.90;;;7.50;64.70;;;;;;5381072;26;20784;-89
2024/04/22 09:16:41;;;;;;;23.40;21.47;;;7.20;62.70;;;;;;5382079;26;20218;-88
2024/04/22 09:19:07;;;;;;;22.73;20.97;;;7.20;63.00;;;;;;5382619;26;20561;-88
2024/04/22 09:21:36;;;;;;;23.10;21.30;;;7.50;65.70;;;;;;5380877;26;20219;-89
2024/04/22 09:24:02;;;;;;;21.83;20.27;;;7.50;62.90;;;;;;5380810;26;20234;-91
2024/04/22 09:26:28;;;;;;;23.50;21.70;;;7.50;66.40;;;;;;5381356;26;20280;-90
2024/04/22 09:28:58;;;;;;;23.03;21.33;;;7.70;61.70;;;;;;5381168;26;20222;-89
2024/04/22 09:31:26;;;;;;;24.53;22.67;;;7.70;64.80;;;;;;5381280;26;20237;-89
2024/04/22 09:33:55;;;;;;;23.67;21.93;;;7.40;62.00;;;;;;5380081;26;20714;-89
2024/04/22 09:36:22;;;;;;;23.70;21.83;;;7.60;63.40;;;;;;5380975;26;20260;-88
2024/04/22 09:38:50;;;;;;;24.50;22.77;;;7.90;63.70;;;;;;5380701;26;20260;-88
2024/04/22 09:41:19;;;;;;;24.03;22.27;;;8.30;64.00;;;;;;5380648;26;20222;-88
2024/04/22 09:43:47;;;;;;;23.87;22.07;;;8.70;62.50;;;;;;5380502;26;20250;-88
2024/04/22 09:46:14;;;;;;;22.97;21.37;;;8.40;62.60;;;;;;5382366;26;20598;-88
2024/04/22 09:48:43;;;;;;;25.60;23.43;;;8.60;62.20;;;;;;5382460;26;20256;-89
2024/04/22 09:51:10;;;;;;;25.20;23.20;;;8.00;61.80;;;;;;5380497;26;20274;-88
2024/04/22 09:53:39;;;;;;;24.77;22.87;;;7.70;62.10;;;;;;5382548;26;20665;-88
2024/04/22 09:56:09;;;;;;;24.53;22.60;;;8.10;63.50;;;;;;5381932;26;20252;-88
2024/04/22 09:58:37;;;;;;;24.40;22.60;;;8.20;61.90;;;;;;5380314;26;20268;-89
2024/04/22 10:01:03;;;;;;;25.07;23.03;;;8.60;59.60;;;;;;5382035;26;20261;-88
2024/04/22 10:03:29;;;;;;;24.53;22.63;;;8.30;58.80;;;;;;5380426;26;20270;-88
2024/04/22 10:05:56;;;;;;;24.80;23.00;;;8.30;56.80;;;;;;5382193;26;20340;-88
2024/04/22 10:08:22;;;;;;;25.33;23.13;;;8.60;59.80;;;;;;5383368;26;20261;-91
2024/04/22 10:10:48;;;;;;;25.27;23.20;;;8.50;57.80;;;;;;5381692;26;20234;-91
2024/04/22 10:13:14;;;;;;;25.07;23.17;;;7.90;57.10;;;;;;5390599;26;20264;-92
2024/04/22 10:15:40;;;;;;;24.93;22.87;;;8.30;56.70;;;;;;5387587;26;20214;-92
2024/04/22 10:18:14;;;;;;;26.07;23.80;;;8.80;55.60;;;;;;5382760;26;20226;-92
2024/04/22 10:20:40;;;;;;;24.57;22.87;;;9.40;53.30;;;;;;5381326;26;20252;-91
2024/04/22 10:23:07;;;;;;;25.37;23.17;;;9.60;56.00;;;;;;5384845;26;20226;-90
2024/04/22 10:25:33;;;;;;;24.50;22.70;;;10.00;56.40;;;;;;5382816;26;20706;-92
2024/04/22 10:27:59;;;;;;;24.90;22.97;;;10.20;50.70;;;;;;5379906;26;20234;-91
2024/04/22 10:30:39;;;;;;;23.57;21.83;;;10.00;51.80;;;;;;5383207;26;20316;-92
2024/04/22 10:33:05;;;;;;;24.90;22.90;;;10.20;55.60;;;;;;5401370;26;20211;-91
2024/04/22 10:35:31;;;;;;;23.97;21.73;;;10.40;56.10;;;;;;5382155;26;20737;-91
2024/04/22 10:37:57;;;;;;;24.80;22.90;;;10.50;54.90;;;;;;5379630;26;20725;-91
2024/04/22 10:40:23;;;;;;;25.90;23.63;;;10.30;54.80;;;;;;5381674;26;20233;-91
2024/04/22 10:42:49;;;;;;;25.37;23.37;;;10.20;54.40;;;;;;5382837;26;20223;-90
2024/04/22 10:45:15;;;;;;;24.77;22.77;;;10.00;55.40;;;;;;5380852;26;20761;-93
2024/04/22 10:47:41;;;;;;;25.13;23.23;;;10.00;55.60;;;;;;5393174;26;20327;-91
2024/04/22 10:50:13;;;;;;;23.43;21.80;;;10.00;54.20;;;;;;5390673;26;20249;-91
2024/04/22 10:52:39;;;;;;;23.90;22.20;;;9.50;56.00;;;;;;5399613;26;20253;-91
2024/04/22 10:55:05;;;;;;;25.43;23.47;;;9.60;56.60;;;;;;5389797;26;20234;-89
2024/04/22 10:57:31;;;;;;;25.43;23.53;;;10.00;53.10;;;;;;5389033;26;20722;-91
2024/04/22 10:59:57;;;;;;;24.80;22.90;;;10.00;51.50;;;;;;5384140;26;20227;-88
2024/04/22 11:02:22;;;;;;;25.03;22.87;;;10.20;53.80;;;;;;5391536;26;20218;-91
2024/04/22 11:04:49;;;;;;;25.17;23.37;;;10.40;53.60;;;;;;5390779;26;20273;-90
2024/04/22 11:07:19;;;;;;;24.20;22.40;;;10.70;51.00;;;;;;5387398;26;20270;-90
2024/04/22 11:09:45;;;;;;;25.57;23.53;;;10.90;51.20;;;;;;5389103;26;20226;-89
2024/04/22 11:12:12;;;;;;;25.27;23.33;;;11.10;51.50;;;;;;5383580;26;20218;-90
2024/04/22 11:14:38;;;;;;;25.30;23.50;;;10.80;52.50;;;;;;5384625;26;20713;-89
2024/04/22 11:17:04;;;;;;;24.63;22.57;;;10.70;51.70;;;;;;5383362;26;20218;-90
2024/04/22 11:19:29;;;;;;;24.67;22.77;;;10.30;52.20;;;;;;5383945;26;20241;-90
2024/04/22 11:21:55;;;;;;;24.77;22.77;;;10.30;51.50;;;;;;5387017;26;20747;-89
2024/04/22 11:24:21;;;;;;;25.27;23.30;;;10.20;52.20;;;;;;5389654;26;20230;-88
2024/04/22 11:26:46;;;;;;;25.50;23.60;;;10.00;50.70;;;;;;5384183;26;20219;-88
2024/04/22 11:29:12;;;;;;;25.03;23.23;;;9.90;51.30;;;;;;5382357;26;20218;-88
2024/04/22 11:31:38;;;;;;;24.70;22.67;;;9.70;48.50;;;;;;5384452;26;20214;-88
2024/04/22 11:34:07;;;;;;;24.70;22.83;;;9.30;59.00;;;;;;5384130;26;20264;-88
2024/04/22 11:36:35;;;;;;;23.83;21.83;;;8.80;63.70;;;;;;5384063;26;20215;-89
2024/04/22 11:39:14;;;;;;;22.67;21.10;;;8.10;66.20;;;;;;5384238;26;20315;-88
2024/04/22 11:41:40;;;;;;;22.83;21.00;;;8.20;68.80;;;;;;5384048;26;20655;-88
2024/04/22 11:44:06;;;;;;;22.97;21.23;;;8.70;67.80;;;;;;5382522;26;20238;-88
2024/04/22 11:46:32;;;;;;;22.93;21.13;;;8.80;67.40;;;;;;5384343;26;20710;-88
2024/04/22 11:48:59;;;;;;;23.70;21.57;;;8.80;65.90;;;;;;5382251;26;20236;-88
2024/04/22 11:51:25;;;;;;;21.27;19.87;;;8.70;65.50;;;;;;5382439;26;20311;-89
2024/04/22 11:53:50;;;;;;;22.20;20.40;;;8.70;67.10;;;;;;5382068;26;20250;-88
2024/04/22 11:56:16;;;;;;;22.60;21.00;;;8.50;66.90;;;;;;5381669;26;20223;-88
2024/04/22 11:58:41;;;;;;;23.47;21.47;;;8.50;68.60;;;;;;5383625;26;20257;-88
2024/04/22 12:01:07;;;;;;;22.67;21.07;;;8.70;68.60;;;;;;5382138;26;20711;-88
2024/04/22 12:03:33;;;;;;;37.80;34.80;;;8.90;68.90;;;;;;5383925;26;20226;-88
2024/04/22 12:05:59;;;;;;;37.47;34.97;;;8.50;66.30;;;;;;5383766;26;20226;-88
2024/04/22 12:08:24;;;;;;;36.93;34.43;;;8.20;67.50;;;;;;5383942;26;20218;-88
2024/04/22 12:10:50;;;;;;;35.03;32.63;;;7.90;67.40;;;;;;5383810;26;20265;-87
2024/04/22 12:13:16;;;;;;;36.97;34.47;;;7.70;68.20;;;;;;5383836;26;20580;-87
2024/04/22 12:15:41;;;;;;;36.03;33.53;;;7.80;67.10;;;;;;5383769;26;20210;-88
2024/04/22 12:18:07;;;;;;;39.63;36.93;;;8.00;67.00;;;;;;5381916;26;20230;-88
2024/04/22 12:20:32;;;;;;;37.83;35.37;;;8.10;66.80;;;;;;5383471;26;20710;-88
2024/04/22 12:22:58;;;;;;;39.67;36.67;;;8.40;66.40;;;;;;5383415;26;20215;-88
2024/04/22 12:25:23;;;;;;;38.97;35.93;;;8.40;63.80;;;;;;5383401;26;20571;-88
2024/04/22 12:27:49;;;;;;;40.80;37.63;;;8.80;63.00;;;;;;5381921;26;20733;-88
2024/04/22 12:30:14;;;;;;;37.43;34.40;;;9.20;62.50;;;;;;5383263;26;20223;-87
2024/04/22 12:32:40;;;;;;;39.10;36.50;;;9.60;60.80;;;;;;5383521;26;20215;-88
2024/04/22 12:35:06;;;;;;;39.07;36.37;;;10.00;59.50;;;;;;5383257;26;20249;-87
2024/04/22 12:37:31;;;;;;;40.50;37.63;;;10.30;57.10;;;;;;5382976;26;20244;-87
2024/04/22 12:39:57;;;;;;;37.03;34.43;;;10.20;50.80;;;;;;5381221;26;20226;-87